sensor_id;sensor_type;location;lat;lon;timestamp;P1;durP1;ratioP1;P2;durP2;ratioP2
72586;SDS011;60621;49.576;11.024;2022-07-29T00:00:14;4.00;;;2.00;;
72586;SDS011;60621;49.576;11.024;2022-07-29T00:01:16;5.45;;;2.15;;
72586;SDS011;60621;49.576;11.024;2022-07-29T00:02:19;4.13;;;2.20;;
72586;SDS011;60621;49.576;11.024;2022-07-29T00:03:21;4.00;;;1.98;;
72586;SDS011;60621;49.576;11.024;2022-07-29T00:04:23;4.68;;;2.00;;
72586;SDS011;60621;49.576;11.024;2022-07-29T00:05:24;5.28;;;2.10;;
72586;SDS011;60621;49.576;11.024;2022-07-29T00:06:26;4.00;;;1.98;;
72586;SDS011;60621;49.576;11.024;2022-07-29T00:07:28;5.53;;;2.00;;
72586;SDS011;60621;49.576;11.024;2022-07-29T00:08:29;4.30;;;2.03;;
72586;SDS011;60621;49.576;11.024;2022-07-29T00:09:31;6.88;;;2.20;;
72586;SDS011;60621;49.576;11.024;2022-07-29T00:10:51;5.45;;;2.22;;
72586;SDS011;60621;49.576;11.024;2022-07-29T00:11:53;4.78;;;1.92;;
72586;SDS011;60621;49.576;11.024;2022-07-29T00:12:58;5.70;;;2.17;;
72586;SDS011;60621;49.576;11.024;2022-07-29T00:13:59;4.90;;;2.20;;
72586;SDS011;60621;49.576;11.024;2022-07-29T00:15:01;6.32;;;2.22;;
72586;SDS011;60621;49.576;11.024;2022-07-29T00:16:03;5.22;;;2.22;;
72586;SDS011;60621;49.576;11.024;2022-07-29T00:17:05;5.10;;;2.08;;
72586;SDS011;60621;49.576;11.024;2022-07-29T00:18:07;6.53;;;1.95;;
72586;SDS011;60621;49.576;11.024;2022-07-29T00:19:08;5.07;;;2.15;;
72586;SDS011;60621;49.576;11.024;2022-07-29T00:20:11;4.70;;;2.10;;
72586;SDS011;60621;49.576;11.024;2022-07-29T00:21:12;5.15;;;2.30;;
72586;SDS011;60621;49.576;11.024;2022-07-29T00:22:14;4.57;;;2.08;;
72586;SDS011;60621;49.576;11.024;2022-07-29T00:23:15;5.07;;;2.10;;
72586;SDS011;60621;49.576;11.024;2022-07-29T00:24:17;5.20;;;2.00;;
72586;SDS011;60621;49.576;11.024;2022-07-29T00:25:19;4.88;;;2.10;;
72586;SDS011;60621;49.576;11.024;2022-07-29T00:26:21;9.50;;;2.75;;
72586;SDS011;60621;49.576;11.024;2022-07-29T00:27:22;5.82;;;2.28;;
72586;SDS011;60621;49.576;11.024;2022-07-29T00:28:24;4.95;;;2.30;;
72586;SDS011;60621;49.576;11.024;2022-07-29T00:29:25;4.57;;;2.20;;
72586;SDS011;60621;49.576;11.024;2022-07-29T00:30:35;5.35;;;2.15;;
72586;SDS011;60621;49.576;11.024;2022-07-29T00:31:37;5.05;;;2.15;;
72586;SDS011;60621;49.576;11.024;2022-07-29T00:32:38;5.82;;;2.00;;
72586;SDS011;60621;49.576;11.024;2022-07-29T00:33:40;4.90;;;1.90;;
72586;SDS011;60621;49.576;11.024;2022-07-29T00:34:42;4.53;;;2.05;;
72586;SDS011;60621;49.576;11.024;2022-07-29T00:36:02;5.40;;;2.13;;
72586;SDS011;60621;49.576;11.024;2022-07-29T00:37:04;4.45;;;2.10;;
72586;SDS011;60621;49.576;11.024;2022-07-29T00:38:08;5.22;;;2.00;;
72586;SDS011;60621;49.576;11.024;2022-07-29T00:39:09;5.05;;;1.95;;
72586;SDS011;60621;49.576;11.024;2022-07-29T00:40:11;6.22;;;2.00;;
72586;SDS011;60621;49.576;11.024;2022-07-29T00:41:13;4.90;;;2.05;;
72586;SDS011;60621;49.576;11.024;2022-07-29T00:42:14;5.22;;;2.10;;
72586;SDS011;60621;49.576;11.024;2022-07-29T00:43:16;5.32;;;2.13;;
72586;SDS011;60621;49.576;11.024;2022-07-29T00:44:18;6.47;;;2.25;;
72586;SDS011;60621;49.576;11.024;2022-07-29T00:45:19;6.90;;;2.00;;
72586;SDS011;60621;49.576;11.024;2022-07-29T00:46:21;5.53;;;2.20;;
72586;SDS011;60621;49.576;11.024;2022-07-29T00:47:23;5.70;;;1.90;;
72586;SDS011;60621;49.576;11.024;2022-07-29T00:48:24;4.40;;;2.08;;
72586;SDS011;60621;49.576;11.024;2022-07-29T00:49:26;5.47;;;2.10;;
72586;SDS011;60621;49.576;11.024;2022-07-29T00:50:27;6.32;;;2.00;;
72586;SDS011;60621;49.576;11.024;2022-07-29T00:51:29;6.25;;;1.90;;
72586;SDS011;60621;49.576;11.024;2022-07-29T00:52:32;8.00;;;2.10;;
72586;SDS011;60621;49.576;11.024;2022-07-29T00:53:34;4.70;;;2.10;;
72586;SDS011;60621;49.576;11.024;2022-07-29T00:54:37;6.10;;;1.90;;
72586;SDS011;60621;49.576;11.024;2022-07-29T00:55:45;6.97;;;2.33;;
72586;SDS011;60621;49.576;11.024;2022-07-29T00:56:46;4.25;;;1.90;;
72586;SDS011;60621;49.576;11.024;2022-07-29T00:57:48;6.97;;;2.00;;
72586;SDS011;60621;49.576;11.024;2022-07-29T00:58:50;3.95;;;1.98;;
72586;SDS011;60621;49.576;11.024;2022-07-29T00:59:52;4.15;;;1.90;;
72586;SDS011;60621;49.576;11.024;2022-07-29T01:00:54;4.53;;;1.95;;
72586;SDS011;60621;49.576;11.024;2022-07-29T01:01:56;6.25;;;2.13;;
72586;SDS011;60621;49.576;11.024;2022-07-29T01:02:57;4.82;;;2.03;;
72586;SDS011;60621;49.576;11.024;2022-07-29T01:03:59;5.72;;;2.10;;
72586;SDS011;60621;49.576;11.024;2022-07-29T01:05:02;4.68;;;2.13;;
72586;SDS011;60621;49.576;11.024;2022-07-29T01:06:05;7.25;;;2.00;;
72586;SDS011;60621;49.576;11.024;2022-07-29T01:07:07;5.45;;;2.10;;
72586;SDS011;60621;49.576;11.024;2022-07-29T01:08:09;5.25;;;2.10;;
72586;SDS011;60621;49.576;11.024;2022-07-29T01:09:14;13.50;;;2.42;;
72586;SDS011;60621;49.576;11.024;2022-07-29T01:10:34;6.13;;;1.92;;
72586;SDS011;60621;49.576;11.024;2022-07-29T01:11:38;4.35;;;1.98;;
72586;SDS011;60621;49.576;11.024;2022-07-29T01:12:40;4.70;;;1.92;;
72586;SDS011;60621;49.576;11.024;2022-07-29T01:13:45;8.00;;;2.17;;
72586;SDS011;60621;49.576;11.024;2022-07-29T01:14:48;6.13;;;2.08;;
72586;SDS011;60621;49.576;11.024;2022-07-29T01:15:54;5.70;;;1.95;;
72586;SDS011;60621;49.576;11.024;2022-07-29T01:17:02;7.15;;;2.20;;
72586;SDS011;60621;49.576;11.024;2022-07-29T01:18:23;4.07;;;2.00;;
72586;SDS011;60621;49.576;11.024;2022-07-29T01:24:22;5.45;;;1.77;;
72586;SDS011;60621;49.576;11.024;2022-07-29T01:26:57;4.75;;;2.10;;
72586;SDS011;60621;49.576;11.024;2022-07-29T01:30:22;6.50;;;2.20;;
72586;SDS011;60621;49.576;11.024;2022-07-29T01:31:31;6.45;;;2.15;;
72586;SDS011;60621;49.576;11.024;2022-07-29T01:32:58;6.22;;;2.15;;
72586;SDS011;60621;49.576;11.024;2022-07-29T01:34:03;5.03;;;2.05;;
72586;SDS011;60621;49.576;11.024;2022-07-29T01:36:47;6.47;;;2.00;;
72586;SDS011;60621;49.576;11.024;2022-07-29T01:37:52;4.80;;;1.88;;
72586;SDS011;60621;49.576;11.024;2022-07-29T01:39:18;5.93;;;2.08;;
72586;SDS011;60621;49.576;11.024;2022-07-29T01:40:27;4.93;;;2.03;;
72586;SDS011;60621;49.576;11.024;2022-07-29T01:41:36;4.40;;;2.03;;
72586;SDS011;60621;49.576;11.024;2022-07-29T01:42:42;4.55;;;1.80;;
72586;SDS011;60621;49.576;11.024;2022-07-29T01:43:53;5.40;;;2.20;;
72586;SDS011;60621;49.576;11.024;2022-07-29T01:45:00;5.55;;;1.98;;
72586;SDS011;60621;49.576;11.024;2022-07-29T01:46:09;5.55;;;2.30;;
72586;SDS011;60621;49.576;11.024;2022-07-29T01:47:16;4.30;;;2.15;;
72586;SDS011;60621;49.576;11.024;2022-07-29T01:48:23;4.53;;;2.05;;
72586;SDS011;60621;49.576;11.024;2022-07-29T01:49:29;4.95;;;2.20;;
72586;SDS011;60621;49.576;11.024;2022-07-29T01:50:38;3.90;;;2.05;;
72586;SDS011;60621;49.576;11.024;2022-07-29T01:51:47;4.75;;;2.13;;
72586;SDS011;60621;49.576;11.024;2022-07-29T01:52:54;4.68;;;1.83;;
72586;SDS011;60621;49.576;11.024;2022-07-29T01:55:20;4.18;;;2.13;;
72586;SDS011;60621;49.576;11.024;2022-07-29T01:56:25;4.78;;;2.10;;
72586;SDS011;60621;49.576;11.024;2022-07-29T01:57:32;4.50;;;2.10;;
72586;SDS011;60621;49.576;11.024;2022-07-29T01:58:37;5.10;;;2.05;;
72586;SDS011;60621;49.576;11.024;2022-07-29T01:59:41;5.72;;;2.15;;
72586;SDS011;60621;49.576;11.024;2022-07-29T02:00:46;4.47;;;1.92;;
72586;SDS011;60621;49.576;11.024;2022-07-29T02:01:49;5.20;;;2.05;;
72586;SDS011;60621;49.576;11.024;2022-07-29T02:02:54;5.38;;;2.20;;
72586;SDS011;60621;49.576;11.024;2022-07-29T02:03:58;5.60;;;2.13;;
72586;SDS011;60621;49.576;11.024;2022-07-29T02:05:02;5.13;;;2.10;;
72586;SDS011;60621;49.576;11.024;2022-07-29T02:06:07;4.53;;;2.17;;
72586;SDS011;60621;49.576;11.024;2022-07-29T02:07:12;5.72;;;2.20;;
72586;SDS011;60621;49.576;11.024;2022-07-29T02:08:16;4.28;;;2.00;;
72586;SDS011;60621;49.576;11.024;2022-07-29T02:09:20;5.00;;;1.90;;
72586;SDS011;60621;49.576;11.024;2022-07-29T02:10:25;5.78;;;1.90;;
72586;SDS011;60621;49.576;11.024;2022-07-29T02:11:29;5.72;;;2.10;;
72586;SDS011;60621;49.576;11.024;2022-07-29T02:12:34;5.32;;;2.28;;
72586;SDS011;60621;49.576;11.024;2022-07-29T02:13:37;4.28;;;1.98;;
72586;SDS011;60621;49.576;11.024;2022-07-29T02:15:44;5.20;;;2.10;;
72586;SDS011;60621;49.576;11.024;2022-07-29T02:16:48;6.72;;;2.28;;
72586;SDS011;60621;49.576;11.024;2022-07-29T02:17:58;5.88;;;2.22;;
72586;SDS011;60621;49.576;11.024;2022-07-29T02:19:03;4.88;;;2.20;;
72586;SDS011;60621;49.576;11.024;2022-07-29T02:20:06;6.63;;;2.30;;
72586;SDS011;60621;49.576;11.024;2022-07-29T02:21:10;5.00;;;2.30;;
72586;SDS011;60621;49.576;11.024;2022-07-29T02:22:16;4.18;;;2.00;;
72586;SDS011;60621;49.576;11.024;2022-07-29T02:23:23;5.22;;;2.03;;
72586;SDS011;60621;49.576;11.024;2022-07-29T02:24:25;5.95;;;2.40;;
72586;SDS011;60621;49.576;11.024;2022-07-29T02:25:27;5.50;;;2.00;;
72586;SDS011;60621;49.576;11.024;2022-07-29T02:26:38;5.95;;;2.47;;
72586;SDS011;60621;49.576;11.024;2022-07-29T02:27:42;4.32;;;2.10;;
72586;SDS011;60621;49.576;11.024;2022-07-29T02:28:46;4.35;;;2.00;;
72586;SDS011;60621;49.576;11.024;2022-07-29T02:29:49;5.45;;;2.13;;
72586;SDS011;60621;49.576;11.024;2022-07-29T02:30:52;5.75;;;2.17;;
72586;SDS011;60621;49.576;11.024;2022-07-29T02:31:57;5.68;;;2.30;;
72586;SDS011;60621;49.576;11.024;2022-07-29T02:33:00;4.55;;;2.20;;
72586;SDS011;60621;49.576;11.024;2022-07-29T02:34:05;4.55;;;2.05;;
72586;SDS011;60621;49.576;11.024;2022-07-29T02:35:08;4.20;;;2.00;;
72586;SDS011;60621;49.576;11.024;2022-07-29T02:36:11;3.88;;;1.92;;
72586;SDS011;60621;49.576;11.024;2022-07-29T02:37:13;4.95;;;2.22;;
72586;SDS011;60621;49.576;11.024;2022-07-29T02:38:17;4.40;;;2.05;;
72586;SDS011;60621;49.576;11.024;2022-07-29T02:39:40;5.25;;;2.00;;
72586;SDS011;60621;49.576;11.024;2022-07-29T02:40:44;4.53;;;2.22;;
72586;SDS011;60621;49.576;11.024;2022-07-29T02:41:47;4.53;;;2.15;;
72586;SDS011;60621;49.576;11.024;2022-07-29T02:42:51;7.40;;;2.55;;
72586;SDS011;60621;49.576;11.024;2022-07-29T02:43:55;6.13;;;2.53;;
72586;SDS011;60621;49.576;11.024;2022-07-29T02:44:58;4.40;;;2.25;;
72586;SDS011;60621;49.576;11.024;2022-07-29T02:45:59;5.28;;;2.10;;
72586;SDS011;60621;49.576;11.024;2022-07-29T02:48:27;4.78;;;2.30;;
72586;SDS011;60621;49.576;11.024;2022-07-29T02:49:38;5.47;;;2.20;;
72586;SDS011;60621;49.576;11.024;2022-07-29T02:50:48;5.22;;;2.40;;
72586;SDS011;60621;49.576;11.024;2022-07-29T02:51:54;4.55;;;2.17;;
72586;SDS011;60621;49.576;11.024;2022-07-29T02:53:04;5.50;;;2.22;;
72586;SDS011;60621;49.576;11.024;2022-07-29T02:54:11;5.07;;;2.20;;
72586;SDS011;60621;49.576;11.024;2022-07-29T02:55:32;5.75;;;2.22;;
72586;SDS011;60621;49.576;11.024;2022-07-29T02:56:38;5.32;;;2.20;;
72586;SDS011;60621;49.576;11.024;2022-07-29T02:57:46;4.88;;;2.15;;
72586;SDS011;60621;49.576;11.024;2022-07-29T02:58:57;5.30;;;2.30;;
72586;SDS011;60621;49.576;11.024;2022-07-29T03:00:03;4.35;;;2.47;;
72586;SDS011;60621;49.576;11.024;2022-07-29T03:01:16;5.07;;;2.50;;
72586;SDS011;60621;49.576;11.024;2022-07-29T03:02:22;4.70;;;2.15;;
72586;SDS011;60621;49.576;11.024;2022-07-29T03:03:32;6.30;;;2.45;;
72586;SDS011;60621;49.576;11.024;2022-07-29T03:04:37;4.95;;;2.25;;
72586;SDS011;60621;49.576;11.024;2022-07-29T03:05:42;4.85;;;2.30;;
72586;SDS011;60621;49.576;11.024;2022-07-29T03:06:44;4.43;;;2.15;;
72586;SDS011;60621;49.576;11.024;2022-07-29T03:08:00;5.45;;;2.10;;
72586;SDS011;60621;49.576;11.024;2022-07-29T03:09:08;5.68;;;2.35;;
72586;SDS011;60621;49.576;11.024;2022-07-29T03:10:13;5.43;;;2.40;;
72586;SDS011;60621;49.576;11.024;2022-07-29T03:11:15;4.55;;;2.30;;
72586;SDS011;60621;49.576;11.024;2022-07-29T03:12:18;5.65;;;2.20;;
72586;SDS011;60621;49.576;11.024;2022-07-29T03:13:21;5.95;;;2.38;;
72586;SDS011;60621;49.576;11.024;2022-07-29T03:14:23;4.95;;;2.42;;
72586;SDS011;60621;49.576;11.024;2022-07-29T03:16:28;4.38;;;2.38;;
72586;SDS011;60621;49.576;11.024;2022-07-29T03:17:30;6.63;;;2.55;;
72586;SDS011;60621;49.576;11.024;2022-07-29T03:18:33;5.85;;;2.50;;
72586;SDS011;60621;49.576;11.024;2022-07-29T03:20:38;5.03;;;2.65;;
72586;SDS011;60621;49.576;11.024;2022-07-29T03:21:40;4.60;;;2.35;;
72586;SDS011;60621;49.576;11.024;2022-07-29T03:22:42;4.75;;;2.17;;
72586;SDS011;60621;49.576;11.024;2022-07-29T03:23:47;4.97;;;2.47;;
72586;SDS011;60621;49.576;11.024;2022-07-29T03:24:49;4.20;;;2.20;;
72586;SDS011;60621;49.576;11.024;2022-07-29T03:25:50;5.03;;;2.10;;
72586;SDS011;60621;49.576;11.024;2022-07-29T03:26:52;5.78;;;2.53;;
72586;SDS011;60621;49.576;11.024;2022-07-29T03:27:55;4.78;;;2.28;;
72586;SDS011;60621;49.576;11.024;2022-07-29T03:28:58;5.43;;;2.70;;
72586;SDS011;60621;49.576;11.024;2022-07-29T03:29:59;3.97;;;2.05;;
72586;SDS011;60621;49.576;11.024;2022-07-29T03:31:01;6.70;;;2.40;;
72586;SDS011;60621;49.576;11.024;2022-07-29T03:32:03;5.22;;;2.30;;
72586;SDS011;60621;49.576;11.024;2022-07-29T03:33:08;5.88;;;2.50;;
72586;SDS011;60621;49.576;11.024;2022-07-29T03:34:13;6.22;;;2.50;;
72586;SDS011;60621;49.576;11.024;2022-07-29T03:35:16;6.38;;;2.58;;
72586;SDS011;60621;49.576;11.024;2022-07-29T03:36:17;5.15;;;2.42;;
72586;SDS011;60621;49.576;11.024;2022-07-29T03:37:19;5.07;;;2.30;;
72586;SDS011;60621;49.576;11.024;2022-07-29T03:38:20;4.75;;;2.15;;
72586;SDS011;60621;49.576;11.024;2022-07-29T03:39:27;6.43;;;2.60;;
72586;SDS011;60621;49.576;11.024;2022-07-29T03:40:36;4.97;;;2.45;;
72586;SDS011;60621;49.576;11.024;2022-07-29T03:41:41;4.30;;;2.17;;
72586;SDS011;60621;49.576;11.024;2022-07-29T03:42:45;5.10;;;2.13;;
72586;SDS011;60621;49.576;11.024;2022-07-29T03:44:50;4.88;;;2.63;;
72586;SDS011;60621;49.576;11.024;2022-07-29T03:45:53;5.45;;;2.50;;
72586;SDS011;60621;49.576;11.024;2022-07-29T03:46:57;6.90;;;2.50;;
72586;SDS011;60621;49.576;11.024;2022-07-29T03:48:07;5.03;;;2.33;;
72586;SDS011;60621;49.576;11.024;2022-07-29T03:49:11;7.00;;;2.65;;
72586;SDS011;60621;49.576;11.024;2022-07-29T03:50:16;5.28;;;2.80;;
72586;SDS011;60621;49.576;11.024;2022-07-29T03:51:20;5.85;;;2.70;;
72586;SDS011;60621;49.576;11.024;2022-07-29T03:52:34;4.97;;;2.40;;
72586;SDS011;60621;49.576;11.024;2022-07-29T03:53:36;4.45;;;2.38;;
72586;SDS011;60621;49.576;11.024;2022-07-29T03:54:39;6.20;;;2.70;;
72586;SDS011;60621;49.576;11.024;2022-07-29T03:55:41;6.47;;;2.67;;
72586;SDS011;60621;49.576;11.024;2022-07-29T03:56:48;5.68;;;2.47;;
72586;SDS011;60621;49.576;11.024;2022-07-29T03:57:51;5.63;;;2.60;;
72586;SDS011;60621;49.576;11.024;2022-07-29T03:58:53;5.57;;;2.53;;
72586;SDS011;60621;49.576;11.024;2022-07-29T03:59:56;4.40;;;2.40;;
72586;SDS011;60621;49.576;11.024;2022-07-29T04:00:58;4.95;;;2.50;;
72586;SDS011;60621;49.576;11.024;2022-07-29T04:02:01;6.40;;;2.60;;
72586;SDS011;60621;49.576;11.024;2022-07-29T04:03:05;5.70;;;2.42;;
72586;SDS011;60621;49.576;11.024;2022-07-29T04:04:12;5.03;;;2.60;;
72586;SDS011;60621;49.576;11.024;2022-07-29T04:05:14;6.22;;;2.47;;
72586;SDS011;60621;49.576;11.024;2022-07-29T04:06:16;6.50;;;2.70;;
72586;SDS011;60621;49.576;11.024;2022-07-29T04:07:17;4.88;;;2.60;;
72586;SDS011;60621;49.576;11.024;2022-07-29T04:08:19;6.47;;;2.65;;
72586;SDS011;60621;49.576;11.024;2022-07-29T04:09:21;5.40;;;2.33;;
72586;SDS011;60621;49.576;11.024;2022-07-29T04:10:22;6.53;;;2.42;;
72586;SDS011;60621;49.576;11.024;2022-07-29T04:11:31;4.88;;;2.47;;
72586;SDS011;60621;49.576;11.024;2022-07-29T04:12:53;6.60;;;2.70;;
72586;SDS011;60621;49.576;11.024;2022-07-29T04:13:54;6.78;;;2.70;;
72586;SDS011;60621;49.576;11.024;2022-07-29T04:14:56;6.35;;;2.67;;
72586;SDS011;60621;49.576;11.024;2022-07-29T04:15:57;5.32;;;2.50;;
72586;SDS011;60621;49.576;11.024;2022-07-29T04:17:00;4.72;;;2.30;;
72586;SDS011;60621;49.576;11.024;2022-07-29T04:18:04;7.25;;;2.70;;
72586;SDS011;60621;49.576;11.024;2022-07-29T04:19:06;5.32;;;2.30;;
72586;SDS011;60621;49.576;11.024;2022-07-29T04:20:07;6.32;;;2.42;;
72586;SDS011;60621;49.576;11.024;2022-07-29T04:21:09;6.20;;;2.72;;
72586;SDS011;60621;49.576;11.024;2022-07-29T04:22:10;4.63;;;2.53;;
72586;SDS011;60621;49.576;11.024;2022-07-29T04:23:12;8.93;;;2.78;;
72586;SDS011;60621;49.576;11.024;2022-07-29T04:24:14;6.75;;;2.63;;
72586;SDS011;60621;49.576;11.024;2022-07-29T04:25:16;6.07;;;2.72;;
72586;SDS011;60621;49.576;11.024;2022-07-29T04:26:18;6.53;;;2.53;;
72586;SDS011;60621;49.576;11.024;2022-07-29T04:27:20;6.38;;;2.65;;
72586;SDS011;60621;49.576;11.024;2022-07-29T04:28:22;6.00;;;2.60;;
72586;SDS011;60621;49.576;11.024;2022-07-29T04:29:23;5.57;;;2.65;;
72586;SDS011;60621;49.576;11.024;2022-07-29T04:30:25;6.43;;;2.70;;
72586;SDS011;60621;49.576;11.024;2022-07-29T04:31:27;6.50;;;2.70;;
72586;SDS011;60621;49.576;11.024;2022-07-29T04:32:28;9.55;;;2.85;;
72586;SDS011;60621;49.576;11.024;2022-07-29T04:33:30;6.25;;;2.80;;
72586;SDS011;60621;49.576;11.024;2022-07-29T04:34:32;5.35;;;2.53;;
72586;SDS011;60621;49.576;11.024;2022-07-29T04:35:34;6.70;;;2.67;;
72586;SDS011;60621;49.576;11.024;2022-07-29T04:36:52;6.22;;;2.65;;
72586;SDS011;60621;49.576;11.024;2022-07-29T04:37:53;6.28;;;2.70;;
72586;SDS011;60621;49.576;11.024;2022-07-29T04:38:55;5.38;;;2.42;;
72586;SDS011;60621;49.576;11.024;2022-07-29T04:39:57;9.52;;;2.72;;
72586;SDS011;60621;49.576;11.024;2022-07-29T04:40:58;5.90;;;2.53;;
72586;SDS011;60621;49.576;11.024;2022-07-29T04:42:00;6.25;;;2.85;;
72586;SDS011;60621;49.576;11.024;2022-07-29T04:43:02;5.20;;;2.70;;
72586;SDS011;60621;49.576;11.024;2022-07-29T04:44:06;6.15;;;2.42;;
72586;SDS011;60621;49.576;11.024;2022-07-29T04:45:09;5.88;;;2.70;;
72586;SDS011;60621;49.576;11.024;2022-07-29T04:46:10;6.72;;;2.78;;
72586;SDS011;60621;49.576;11.024;2022-07-29T04:47:12;4.60;;;2.47;;
72586;SDS011;60621;49.576;11.024;2022-07-29T04:48:14;4.93;;;2.58;;
72586;SDS011;60621;49.576;11.024;2022-07-29T04:49:15;5.53;;;2.40;;
72586;SDS011;60621;49.576;11.024;2022-07-29T04:50:17;5.85;;;2.78;;
72586;SDS011;60621;49.576;11.024;2022-07-29T04:51:18;6.10;;;2.58;;
72586;SDS011;60621;49.576;11.024;2022-07-29T04:52:20;4.45;;;2.40;;
72586;SDS011;60621;49.576;11.024;2022-07-29T04:53:21;5.03;;;2.40;;
72586;SDS011;60621;49.576;11.024;2022-07-29T04:54:23;9.65;;;2.70;;
72586;SDS011;60621;49.576;11.024;2022-07-29T04:55:25;6.40;;;2.88;;
72586;SDS011;60621;49.576;11.024;2022-07-29T04:56:27;5.85;;;2.67;;
72586;SDS011;60621;49.576;11.024;2022-07-29T04:57:29;7.25;;;2.95;;
72586;SDS011;60621;49.576;11.024;2022-07-29T04:58:31;5.53;;;2.70;;
72586;SDS011;60621;49.576;11.024;2022-07-29T04:59:32;5.57;;;2.60;;
72586;SDS011;60621;49.576;11.024;2022-07-29T05:00:34;5.03;;;2.90;;
72586;SDS011;60621;49.576;11.024;2022-07-29T05:01:35;5.68;;;2.70;;
72586;SDS011;60621;49.576;11.024;2022-07-29T05:02:37;6.20;;;2.60;;
72586;SDS011;60621;49.576;11.024;2022-07-29T05:03:38;7.03;;;2.80;;
72586;SDS011;60621;49.576;11.024;2022-07-29T05:04:40;8.75;;;2.90;;
72586;SDS011;60621;49.576;11.024;2022-07-29T05:05:41;6.78;;;2.88;;
72586;SDS011;60621;49.576;11.024;2022-07-29T05:06:43;5.07;;;2.78;;
72586;SDS011;60621;49.576;11.024;2022-07-29T05:07:45;4.63;;;2.45;;
72586;SDS011;60621;49.576;11.024;2022-07-29T05:08:46;5.57;;;2.72;;
72586;SDS011;60621;49.576;11.024;2022-07-29T05:09:48;5.68;;;2.70;;
72586;SDS011;60621;49.576;11.024;2022-07-29T05:10:50;6.72;;;2.72;;
72586;SDS011;60621;49.576;11.024;2022-07-29T05:11:51;6.40;;;2.80;;
72586;SDS011;60621;49.576;11.024;2022-07-29T05:12:53;5.95;;;2.80;;
72586;SDS011;60621;49.576;11.024;2022-07-29T05:13:54;6.28;;;3.10;;
72586;SDS011;60621;49.576;11.024;2022-07-29T05:14:56;5.25;;;2.78;;
72586;SDS011;60621;49.576;11.024;2022-07-29T05:15:57;6.07;;;2.70;;
72586;SDS011;60621;49.576;11.024;2022-07-29T05:16:59;4.70;;;2.60;;
72586;SDS011;60621;49.576;11.024;2022-07-29T05:18:01;5.53;;;2.90;;
72586;SDS011;60621;49.576;11.024;2022-07-29T05:19:02;5.35;;;2.85;;
72586;SDS011;60621;49.576;11.024;2022-07-29T05:20:04;5.97;;;2.78;;
72586;SDS011;60621;49.576;11.024;2022-07-29T05:21:07;7.25;;;2.65;;
72586;SDS011;60621;49.576;11.024;2022-07-29T05:22:08;6.50;;;2.50;;
72586;SDS011;60621;49.576;11.024;2022-07-29T05:23:10;6.97;;;2.60;;
72586;SDS011;60621;49.576;11.024;2022-07-29T05:24:13;7.75;;;2.80;;
72586;SDS011;60621;49.576;11.024;2022-07-29T05:25:16;5.80;;;2.88;;
72586;SDS011;60621;49.576;11.024;2022-07-29T05:26:17;6.95;;;2.70;;
72586;SDS011;60621;49.576;11.024;2022-07-29T05:27:19;5.47;;;2.67;;
72586;SDS011;60621;49.576;11.024;2022-07-29T05:28:21;6.10;;;3.20;;
72586;SDS011;60621;49.576;11.024;2022-07-29T05:29:22;6.22;;;2.67;;
72586;SDS011;60621;49.576;11.024;2022-07-29T05:30:44;6.45;;;2.83;;
72586;SDS011;60621;49.576;11.024;2022-07-29T05:31:45;6.00;;;3.20;;
72586;SDS011;60621;49.576;11.024;2022-07-29T05:32:47;6.82;;;2.80;;
72586;SDS011;60621;49.576;11.024;2022-07-29T05:33:48;7.65;;;2.63;;
72586;SDS011;60621;49.576;11.024;2022-07-29T05:34:50;5.78;;;2.72;;
72586;SDS011;60621;49.576;11.024;2022-07-29T05:35:52;6.05;;;2.50;;
72586;SDS011;60621;49.576;11.024;2022-07-29T05:37:00;6.72;;;2.80;;
72586;SDS011;60621;49.576;11.024;2022-07-29T05:38:01;5.82;;;2.80;;
72586;SDS011;60621;49.576;11.024;2022-07-29T05:39:03;7.32;;;2.70;;
72586;SDS011;60621;49.576;11.024;2022-07-29T05:40:05;5.78;;;2.40;;
72586;SDS011;60621;49.576;11.024;2022-07-29T05:41:07;5.65;;;2.80;;
72586;SDS011;60621;49.576;11.024;2022-07-29T05:42:09;4.80;;;2.45;;
72586;SDS011;60621;49.576;11.024;2022-07-29T05:44:12;4.38;;;2.50;;
72586;SDS011;60621;49.576;11.024;2022-07-29T05:45:15;5.95;;;2.20;;
72586;SDS011;60621;49.576;11.024;2022-07-29T05:46:16;5.47;;;2.38;;
72586;SDS011;60621;49.576;11.024;2022-07-29T05:47:18;5.28;;;2.35;;
72586;SDS011;60621;49.576;11.024;2022-07-29T05:48:20;5.18;;;2.60;;
72586;SDS011;60621;49.576;11.024;2022-07-29T05:49:21;5.70;;;2.58;;
72586;SDS011;60621;49.576;11.024;2022-07-29T05:50:27;5.47;;;2.38;;
72586;SDS011;60621;49.576;11.024;2022-07-29T05:51:29;4.80;;;2.45;;
72586;SDS011;60621;49.576;11.024;2022-07-29T05:52:31;6.70;;;2.58;;
72586;SDS011;60621;49.576;11.024;2022-07-29T05:53:32;6.10;;;2.60;;
72586;SDS011;60621;49.576;11.024;2022-07-29T05:54:34;5.85;;;2.50;;
72586;SDS011;60621;49.576;11.024;2022-07-29T05:55:36;4.75;;;2.10;;
72586;SDS011;60621;49.576;11.024;2022-07-29T05:56:39;5.68;;;2.42;;
72586;SDS011;60621;49.576;11.024;2022-07-29T05:57:41;5.93;;;2.40;;
72586;SDS011;60621;49.576;11.024;2022-07-29T05:58:44;5.72;;;2.30;;
72586;SDS011;60621;49.576;11.024;2022-07-29T05:59:46;5.47;;;2.05;;
72586;SDS011;60621;49.576;11.024;2022-07-29T06:00:48;5.38;;;2.50;;
72586;SDS011;60621;49.576;11.024;2022-07-29T06:01:49;6.72;;;2.40;;
72586;SDS011;60621;49.576;11.024;2022-07-29T06:02:51;5.45;;;2.55;;
72586;SDS011;60621;49.576;11.024;2022-07-29T06:03:52;4.88;;;2.25;;
72586;SDS011;60621;49.576;11.024;2022-07-29T06:04:54;6.07;;;2.30;;
72586;SDS011;60621;49.576;11.024;2022-07-29T06:05:56;6.20;;;2.15;;
72586;SDS011;60621;49.576;11.024;2022-07-29T06:06:57;5.70;;;2.20;;
72586;SDS011;60621;49.576;11.024;2022-07-29T06:07:59;6.40;;;2.50;;
72586;SDS011;60621;49.576;11.024;2022-07-29T06:09:01;5.85;;;2.60;;
72586;SDS011;60621;49.576;11.024;2022-07-29T06:10:12;5.55;;;2.40;;
72586;SDS011;60621;49.576;11.024;2022-07-29T06:11:14;5.03;;;2.28;;
72586;SDS011;60621;49.576;11.024;2022-07-29T06:12:15;5.20;;;2.40;;
72586;SDS011;60621;49.576;11.024;2022-07-29T06:13:17;5.65;;;2.70;;
72586;SDS011;60621;49.576;11.024;2022-07-29T06:14:18;5.15;;;2.38;;
72586;SDS011;60621;49.576;11.024;2022-07-29T06:15:20;8.43;;;2.47;;
72586;SDS011;60621;49.576;11.024;2022-07-29T06:16:22;5.22;;;2.10;;
72586;SDS011;60621;49.576;11.024;2022-07-29T06:17:30;5.55;;;2.20;;
72586;SDS011;60621;49.576;11.024;2022-07-29T06:18:31;4.85;;;2.20;;
72586;SDS011;60621;49.576;11.024;2022-07-29T06:19:33;5.38;;;2.40;;
72586;SDS011;60621;49.576;11.024;2022-07-29T06:20:36;4.78;;;2.20;;
72586;SDS011;60621;49.576;11.024;2022-07-29T06:21:44;5.53;;;2.42;;
72586;SDS011;60621;49.576;11.024;2022-07-29T06:23:48;5.78;;;2.40;;
72586;SDS011;60621;49.576;11.024;2022-07-29T06:24:49;4.53;;;2.30;;
72586;SDS011;60621;49.576;11.024;2022-07-29T06:25:51;5.47;;;2.47;;
72586;SDS011;60621;49.576;11.024;2022-07-29T06:26:52;5.53;;;2.30;;
72586;SDS011;60621;49.576;11.024;2022-07-29T06:27:54;6.10;;;2.50;;
72586;SDS011;60621;49.576;11.024;2022-07-29T06:28:55;5.88;;;2.70;;
72586;SDS011;60621;49.576;11.024;2022-07-29T06:29:57;5.10;;;2.40;;
72586;SDS011;60621;49.576;11.024;2022-07-29T06:30:59;5.03;;;2.42;;
72586;SDS011;60621;49.576;11.024;2022-07-29T06:32:00;6.82;;;2.97;;
72586;SDS011;60621;49.576;11.024;2022-07-29T06:33:03;6.72;;;2.53;;
72586;SDS011;60621;49.576;11.024;2022-07-29T06:34:05;5.25;;;2.50;;
72586;SDS011;60621;49.576;11.024;2022-07-29T06:35:07;4.90;;;2.40;;
72586;SDS011;60621;49.576;11.024;2022-07-29T06:36:29;5.43;;;2.33;;
72586;SDS011;60621;49.576;11.024;2022-07-29T06:37:31;5.72;;;2.38;;